Time;durP1;ratioP1;P1;durP2;ratioP2;P2;SDS_P1;SDS_P2;PMS_P1;PMS_P2;Temp;Humidity;BMP_temperature;BMP_pressure;BME280_temperature;BME280_humidity;BME280_pressure;Samples;Min_cycle;Max_cycle;Signal;HPM_P1;HPM_P2
2023/12/10 00:00:06;;;;;;;;;;;;;;;7.32;100.00;99694.50;5037118;28;1032;-74
2023/12/10 00:02:32;;;;;;;;;;;;;;;7.36;100.00;99692.47;5036036;28;1257;-76
2023/12/10 00:04:57;;;;;;;;;;;;;;;7.41;100.00;99688.56;5038183;28;1989;-76
2023/12/10 00:07:22;;;;;;;;;;;;;;;7.45;100.00;99700.25;5031014;28;1308;-75
2023/12/10 00:09:48;;;;;;;;;;;;;;;7.40;100.00;99694.66;5034613;28;1515;-75
2023/12/10 00:12:13;;;;;;;;;;;;;;;7.39;100.00;99700.75;5024599;28;970;-75
2023/12/10 00:14:38;;;;;;;;;;;;;;;7.42;100.00;99704.84;5026081;28;1096;-75
2023/12/10 00:17:03;;;;;;;;;;;;;;;7.50;100.00;99711.91;5043089;28;1147;-74
2023/12/10 00:19:29;;;;;;;;;;;;;;;7.46;100.00;99716.53;5036427;28;1368;-74
2023/12/10 00:21:54;;;;;;;;;;;;;;;7.44;100.00;99719.22;5047979;28;1077;-74
2023/12/10 00:24:21;;;;;;;;;;;;;;;7.41;100.00;99714.34;5048391;28;1318;-76
2023/12/10 00:26:47;;;;;;;;;;;;;;;7.51;100.00;99723.84;5056311;28;1969;-75
2023/12/10 00:29:12;;;;;;;;;;;;;;;7.43;100.00;99727.09;5039781;28;1133;-74
2023/12/10 00:31:37;;;;;;;;;;;;;;;7.53;100.00;99738.28;5048572;28;1059;-75
2023/12/10 00:34:02;;;;;;;;;;;;;;;7.48;100.00;99734.47;5040522;28;993;-77
2023/12/10 00:36:27;;;;;;;;;;;;;;;7.49;100.00;99736.09;5047273;28;1071;-75
2023/12/10 00:38:55;;;;;;;;;;;;;;;7.37;100.00;99738.75;5039667;28;1372;-74
2023/12/10 00:41:21;;;;;;;;;;;;;;;7.36;100.00;99726.81;5039869;28;1428;-75
2023/12/10 00:43:46;;;;;;;;;;;;;;;7.36;100.00;99731.97;5043930;28;1081;-75
2023/12/10 00:46:11;;;;;;;;;;;;;;;7.36;100.00;99737.13;5044823;28;1898;-75
2023/12/10 00:48:37;;;;;;;;;;;;;;;7.30;100.00;99735.09;5046658;28;1075;-75
2023/12/10 00:51:02;;;;;;;;;;;;;;;7.25;100.00;99744.97;5042059;28;1060;-74
2023/12/10 00:53:28;;;;;;;;;;;;;;;7.25;100.00;99744.97;5044897;28;1312;-76
2023/12/10 00:55:53;;;;;;;;;;;;;;;7.23;100.00;99741.72;5041838;28;1153;-75
2023/12/10 00:58:18;;;;;;;;;;;;;;;7.26;100.00;99756.91;5039179;28;1158;-75
2023/12/10 01:00:44;;;;;;;;;;;;;;;7.18;100.00;99755.00;5043737;28;1255;-74
2023/12/10 01:03:09;;;;;;;;;;;;;;;7.21;100.00;99759.06;5039421;28;1144;-75
2023/12/10 01:05:34;;;;;;;;;;;;;;;7.15;100.00;99760.41;5048351;28;1893;-76
2023/12/10 01:07:59;;;;;;;;;;;;;;;7.13;100.00;99761.50;5042943;28;1155;-75
2023/12/10 01:10:25;;;;;;;;;;;;;;;7.14;100.00;99763.13;5036921;28;1315;-74
2023/12/10 01:12:50;;;;;;;;;;;;;;;7.08;100.00;99763.63;5044769;28;1133;-74
2023/12/10 01:15:16;;;;;;;;;;;;;;;7.08;100.00;99763.63;5035384;28;1018;-75
2023/12/10 01:17:41;;;;;;;;;;;;;;;7.13;100.00;99761.50;5040586;28;1069;-74
2023/12/10 01:20:07;;;;;;;;;;;;;;;7.09;100.00;99765.25;5039366;28;1086;-73
2023/12/10 01:22:32;;;;;;;;;;;;;;;7.06;100.00;99770.69;5032410;28;1140;-75
2023/12/10 01:24:57;;;;;;;;;;;;;;;7.14;100.00;99773.44;5038720;28;1898;-75
2023/12/10 01:27:23;;;;;;;;;;;;;;;7.06;100.00;99765.53;5059185;28;1084;-75
2023/12/10 01:29:48;;;;;;;;;;;;;;;7.13;100.00;99782.13;5049086;28;1170;-76
2023/12/10 01:32:13;;;;;;;;;;;;;;;7.02;100.00;99777.03;5047383;28;1214;-75
2023/12/10 01:34:38;;;;;;;;;;;;;;;7.05;100.00;99779.34;5047722;28;1068;-75
2023/12/10 01:37:03;;;;;;;;;;;;;;;7.11;100.00;99789.16;5039419;28;1079;-75
2023/12/10 01:39:30;;;;;;;;;;;;;;;7.06;100.00;99786.16;5048412;28;1184;-77
2023/12/10 01:41:55;;;;;;;;;;;;;;;7.12;100.00;99780.50;5037406;28;1084;-76
2023/12/10 01:44:21;;;;;;;;;;;;;;;7.12;100.00;99790.81;5047500;28;1213;-75
2023/12/10 01:46:46;;;;;;;;;;;;;;;7.01;100.00;99783.97;5050044;28;1914;-79
2023/12/10 01:49:11;;;;;;;;;;;;;;;7.06;100.00;99781.00;5048581;28;1406;-74
2023/12/10 01:51:38;;;;;;;;;;;;;;;7.01;100.00;99788.31;5046967;28;1171;-76
2023/12/10 01:54:04;;;;;;;;;;;;;;;7.00;100.00;99786.66;5051044;28;1122;-74
2023/12/10 01:56:30;;;;;;;;;;;;;;;6.97;100.00;99792.06;5040137;28;1337;-74
2023/12/10 01:58:55;;;;;;;;;;;;;;;6.91;100.00;99794.22;5034369;28;1167;-74
2023/12/10 02:01:21;;;;;;;;;;;;;;;6.91;100.00;99799.38;5037548;28;1117;-76
2023/12/10 02:03:46;;;;;;;;;;;;;;;6.97;100.00;99799.81;5037575;28;1325;-77
2023/12/10 02:06:12;;;;;;;;;;;;;;;7.00;100.00;99797.00;5043029;28;1975;-75
2023/12/10 02:08:37;;;;;;;;;;;;;;;7.01;100.00;99798.63;5038469;28;1089;-74
2023/12/10 02:11:02;;;;;;;;;;;;;;;6.92;100.00;99801.00;5040113;28;1141;-74
2023/12/10 02:13:28;;;;;;;;;;;;;;;6.94;100.00;99803.47;5039579;28;1202;-74
2023/12/10 02:15:53;;;;;;;;;;;;;;;6.96;100.00;99805.91;5043870;28;1165;-78
2023/12/10 02:18:20;;;;;;;;;;;;;;;6.99;100.00;99806.44;5036670;28;1208;-76
2023/12/10 02:20:45;;;;;;;;;;;;;;;7.04;100.00;99809.47;5040928;28;1152;-76
2023/12/10 02:23:26;;;;;;;;;;;;;;;6.99;100.00;99815.94;5031582;28;1308;-75
2023/12/10 02:25:51;;;;;;;;;;;;;;;7.00;100.00;99812.44;5041523;28;1897;-74
2023/12/10 02:28:22;;;;;;;;;;;;;;;6.95;100.00;99812.00;5036028;28;1317;-75
2023/12/10 02:30:47;;;;;;;;;;;;;;;6.89;100.00;99815.91;5041600;28;1019;-77
2023/12/10 02:33:12;;;;;;;;;;;;;;;6.92;100.00;99795.84;5047740;28;1297;-75
2023/12/10 02:35:37;;;;;;;;;;;;;;;7.02;100.00;99818.28;5049145;28;1095;-74
2023/12/10 02:38:04;;;;;;;;;;;;;;;7.00;100.00;99820.19;5049305;28;1246;-75
2023/12/10 02:40:30;;;;;;;;;;;;;;;7.00;100.00;99825.34;5047247;28;1105;-74
2023/12/10 02:42:55;;;;;;;;;;;;;;;6.92;100.00;99821.59;5043124;28;1151;-74
2023/12/10 02:45:20;;;;;;;;;;;;;;;6.96;100.00;99816.22;5049678;28;1999;-74
2023/12/10 02:47:45;;;;;;;;;;;;;;;6.87;100.00;99823.75;5045591;28;1135;-74
2023/12/10 02:50:10;;;;;;;;;;;;;;;6.89;100.00;99821.06;5041947;28;986;-75
2023/12/10 02:52:36;;;;;;;;;;;;;;;6.97;100.00;99825.59;5040248;28;1042;-75
2023/12/10 02:55:01;;;;;;;;;;;;;;;6.83;100.00;99824.97;5039496;28;1079;-74
2023/12/10 02:57:27;;;;;;;;;;;;;;;6.86;100.00;99829.84;5040932;28;1144;-76
2023/12/10 02:59:52;;;;;;;;;;;;;;;6.79;100.00;99826.16;5044719;28;994;-73
2023/12/10 03:02:17;;;;;;;;;;;;;;;6.86;100.00;99816.97;5046657;28;1013;-76
2023/12/10 03:04:42;;;;;;;;;;;;;;;6.91;100.00;99838.03;5042788;28;1148;-75
2023/12/10 03:07:07;;;;;;;;;;;;;;;6.89;100.00;99842.50;5030880;28;1906;-75
2023/12/10 03:09:33;;;;;;;;;;;;;;;6.91;100.00;99840.59;5036836;28;1053;-74
2023/12/10 03:11:58;;;;;;;;;;;;;;;6.87;100.00;99828.09;5044482;28;1600;-77
2023/12/10 03:14:23;;;;;;;;;;;;;;;6.87;100.00;99846.13;5039385;28;1312;-74
2023/12/10 03:16:48;;;;;;;;;;;;;;;6.91;100.00;99835.44;5038161;28;1233;-74
2023/12/10 03:19:13;;;;;;;;;;;;;;;6.89;100.00;99845.06;5036436;28;1124;-75
2023/12/10 03:21:38;;;;;;;;;;;;;;;7.06;100.00;99837.72;5037903;28;1070;-74
2023/12/10 03:24:04;;;;;;;;;;;;;;;7.08;100.00;99846.94;5044453;28;1271;-75
2023/12/10 03:26:29;;;;;;;;;;;;;;;7.14;100.00;99840.47;5049245;28;1971;-74
2023/12/10 03:28:54;;;;;;;;;;;;;;;7.13;100.00;99851.72;5035791;28;1250;-76
2023/12/10 03:31:19;;;;;;;;;;;;;;;7.21;100.00;99841.59;5042494;28;1157;-75
2023/12/10 03:33:45;;;;;;;;;;;;;;;7.13;100.00;99846.56;5043900;28;1339;-74
2023/12/10 03:36:10;;;;;;;;;;;;;;;7.32;100.00;99838.13;5041060;28;1101;-74
2023/12/10 03:38:35;;;;;;;;;;;;;;;7.15;100.00;99857.56;5043755;28;1118;-74
2023/12/10 03:41:01;;;;;;;;;;;;;;;7.13;100.00;99854.31;5043265;28;1156;-74
2023/12/10 03:43:26;;;;;;;;;;;;;;;7.17;100.00;99850.53;5035171;28;1003;-73
2023/12/10 03:45:51;;;;;;;;;;;;;;;7.27;100.00;99869.44;5033610;28;1975;-73
2023/12/10 03:48:16;;;;;;;;;;;;;;;7.31;100.00;99857.94;5033939;28;1152;-75
2023/12/10 03:50:41;;;;;;;;;;;;;;;7.24;100.00;99861.97;5049049;28;1071;-73
2023/12/10 03:53:06;;;;;;;;;;;;;;;7.24;100.00;99877.47;5046494;28;1078;-75
2023/12/10 03:55:32;;;;;;;;;;;;;;;7.25;100.00;99873.94;5056444;28;1149;-74
2023/12/10 03:57:57;;;;;;;;;;;;;;;7.28;99.61;99886.56;5032593;28;1037;-74
2023/12/10 04:00:22;;;;;;;;;;;;;;;7.25;100.00;99866.19;5039943;28;1076;-74
2023/12/10 04:02:47;;;;;;;;;;;;;;;7.33;98.97;99876.69;5048262;28;1115;-74
2023/12/10 04:05:13;;;;;;;;;;;;;;;7.44;97.10;99868.84;5042230;28;1959;-74
2023/12/10 04:07:39;;;;;;;;;;;;;;;7.47;97.36;99872.16;5044091;28;1210;-75
2023/12/10 04:10:04;;;;;;;;;;;;;;;7.36;98.24;99876.44;5041922;28;1157;-77
2023/12/10 04:12:30;;;;;;;;;;;;;;;7.53;96.37;99897.44;5038869;28;1183;-74
2023/12/10 04:14:55;;;;;;;;;;;;;;;7.55;95.42;99880.03;5048346;28;1242;-75
2023/12/10 04:17:21;;;;;;;;;;;;;;;7.60;95.60;99888.22;5041812;28;1155;-74
2023/12/10 04:19:46;;;;;;;;;;;;;;;7.52;94.86;99900.97;5051916;28;1147;-74
2023/12/10 04:22:11;;;;;;;;;;;;;;;7.51;95.50;99920.75;5047145;28;1091;-76
2023/12/10 04:24:36;;;;;;;;;;;;;;;7.52;95.04;99916.44;5047454;28;1143;-74
2023/12/10 04:27:01;;;;;;;;;;;;;;;7.47;95.37;99908.25;5049001;28;1906;-76
2023/12/10 04:29:26;;;;;;;;;;;;;;;7.47;95.86;99926.31;5042760;28;1067;-74
2023/12/10 04:31:52;;;;;;;;;;;;;;;7.57;94.11;99934.91;5044073;28;1002;-73
2023/12/10 04:34:17;;;;;;;;;;;;;;;7.54;94.64;99945.50;5039969;28;1131;-74
2023/12/10 04:36:42;;;;;;;;;;;;;;;7.44;96.65;99941.09;5042793;28;1134;-74
2023/12/10 04:39:08;;;;;;;;;;;;;;;7.52;95.49;99961.13;5035336;28;1249;-77
2023/12/10 04:41:34;;;;;;;;;;;;;;;7.37;96.63;99955.44;5033419;28;1082;-76
2023/12/10 04:43:59;;;;;;;;;;;;;;;7.40;97.27;99955.22;5041144;28;994;-73
2023/12/10 04:46:24;;;;;;;;;;;;;;;7.34;97.13;99966.03;5039480;28;1955;-75
2023/12/10 04:48:49;;;;;;;;;;;;;;;7.42;96.94;99967.97;5036082;28;1170;-73
2023/12/10 04:51:14;;;;;;;;;;;;;;;7.42;96.62;99947.34;5043746;28;1187;-74
2023/12/10 04:53:39;;;;;;;;;;;;;;;7.33;97.12;99964.38;5030772;28;1335;-73
2023/12/10 04:56:05;;;;;;;;;;;;;;;7.40;96.23;99975.84;5034386;28;1106;-74
2023/12/10 04:58:30;;;;;;;;;;;;;;;7.42;96.04;99979.13;5044903;28;1092;-74
2023/12/10 05:00:55;;;;;;;;;;;;;;;7.43;96.21;99985.91;5039876;28;1237;-75
2023/12/10 05:03:20;;;;;;;;;;;;;;;7.45;95.91;99968.56;5045907;28;1231;-74
2023/12/10 05:05:46;;;;;;;;;;;;;;;7.45;96.60;99999.50;5047713;28;2000;-74
2023/12/10 05:08:11;;;;;;;;;;;;;;;7.50;95.56;100000.88;5058160;28;1025;-73
2023/12/10 05:10:36;;;;;;;;;;;;;;;7.51;95.38;100002.50;5050508;28;1223;-73
2023/12/10 05:13:01;;;;;;;;;;;;;;;7.60;94.77;99996.59;5043022;28;1444;-73
2023/12/10 05:15:26;;;;;;;;;;;;;;;7.55;94.40;99993.59;5047943;28;993;-74
2023/12/10 05:17:52;;;;;;;;;;;;;;;7.48;95.76;100013.91;5046941;28;1236;-75
2023/12/10 05:20:17;;;;;;;;;;;;;;;7.57;94.72;100027.81;5048392;28;1223;-75
2023/12/10 05:22:42;;;;;;;;;;;;;;;7.49;95.20;100014.72;5043698;28;1442;-73
2023/12/10 05:25:07;;;;;;;;;;;;;;;7.56;95.08;100021.00;5049564;28;1894;-76
2023/12/10 05:27:32;;;;;;;;;;;;;;;7.47;95.78;100032.09;5048487;28;1068;-75
2023/12/10 05:29:58;;;;;;;;;;;;;;;7.59;94.06;100052.56;5045645;28;1206;-73
2023/12/10 05:32:23;;;;;;;;;;;;;;;7.54;94.37;100028.06;5040181;28;1187;-74
2023/12/10 05:34:49;;;;;;;;;;;;;;;7.55;94.51;100042.59;5032356;28;1426;-73
2023/12/10 05:37:14;;;;;;;;;;;;;;;7.60;94.07;100043.06;5038705;28;1375;-74
2023/12/10 05:39:39;;;;;;;;;;;;;;;7.48;95.06;100051.78;5040755;28;1137;-75
2023/12/10 05:42:04;;;;;;;;;;;;;;;7.57;93.64;100058.78;5042223;28;1453;-74
2023/12/10 05:44:29;;;;;;;;;;;;;;;7.55;93.90;100071.00;5045486;28;1354;-75
2023/12/10 05:46:55;;;;;;;;;;;;;;;7.53;94.42;100072.88;5041757;28;1902;-76
2023/12/10 05:49:22;;;;;;;;;;;;;;;7.51;94.94;100064.44;5039750;28;1160;-76
2023/12/10 05:51:47;;;;;;;;;;;;;;;7.49;95.09;100081.81;5038859;28;1353;-74
2023/12/10 05:54:13;;;;;;;;;;;;;;;7.51;95.15;100085.06;5038387;28;1045;-77
2023/12/10 05:56:38;;;;;;;;;;;;;;;7.50;94.67;100094.56;5040027;28;967;-74
2023/12/10 05:59:03;;;;;;;;;;;;;;;7.44;95.26;100108.78;5028754;28;1333;-74
2023/12/10 06:01:28;;;;;;;;;;;;;;;7.55;93.62;100107.13;5025544;28;1261;-74
2023/12/10 06:03:53;;;;;;;;;;;;;;;7.50;94.40;100124.72;5037429;28;1286;-75
2023/12/10 06:06:18;;;;;;;;;;;;;;;7.57;93.91;100115.53;5042949;28;1964;-75
2023/12/10 06:08:44;;;;;;;;;;;;;;;7.71;93.10;100143.66;5055223;28;1290;-74
2023/12/10 06:11:09;;;;;;;;;;;;;;;7.57;94.32;100162.00;5045204;28;1271;-73
2023/12/10 06:13:34;;;;;;;;;;;;;;;7.54;94.06;100133.88;5045355;28;1078;-73
2023/12/10 06:15:59;;;;;;;;;;;;;;;7.59;93.22;100167.88;5050328;28;1418;-76
2023/12/10 06:18:25;;;;;;;;;;;;;;;7.54;93.96;100167.41;5038919;28;1345;-77
2023/12/10 06:20:50;;;;;;;;;;;;;;;7.58;93.79;100163.66;5037526;28;1210;-75
2023/12/10 06:23:15;;;;;;;;;;;;;;;7.61;92.93;100163.41;5040651;28;1195;-73
2023/12/10 06:25:40;;;;;;;;;;;;;;;7.57;93.31;100156.84;5035407;28;1903;-75
2023/12/10 06:28:05;;;;;;;;;;;;;;;7.64;92.87;100124.47;5047924;28;1173;-75
2023/12/10 06:30:31;;;;;;;;;;;;;;;7.50;94.12;100166.00;5038503;28;1063;-75
2023/12/10 06:32:56;;;;;;;;;;;;;;;7.52;93.94;100179.63;5038841;28;1001;-73
2023/12/10 06:35:21;;;;;;;;;;;;;;;7.56;92.69;100186.16;5040085;28;1013;-74
2023/12/10 06:37:46;;;;;;;;;;;;;;;7.60;92.73;100192.72;5039704;28;1106;-77
2023/12/10 06:40:12;;;;;;;;;;;;;;;7.55;93.32;100192.28;5038001;28;1117;-75
2023/12/10 06:42:37;;;;;;;;;;;;;;;7.55;93.58;100202.59;5039950;28;1191;-74
2023/12/10 06:45:03;;;;;;;;;;;;;;;7.58;93.22;100204.94;5037948;28;1906;-73
2023/12/10 06:47:28;;;;;;;;;;;;;;;7.63;92.32;100223.47;5043006;28;1178;-74
2023/12/10 06:49:54;;;;;;;;;;;;;;;7.63;92.30;100218.31;5033026;28;2302;-73
2023/12/10 06:52:19;;;;;;;;;;;;;;;7.53;93.57;100222.56;5038382;28;1263;-75
2023/12/10 06:54:44;;;;;;;;;;;;;;;7.56;93.31;100253.25;5038272;28;1241;-74
2023/12/10 06:57:09;;;;;;;;;;;;;;;7.55;92.54;100241.31;5035705;28;1210;-76
2023/12/10 06:59:34;;;;;;;;;;;;;;;7.49;93.58;100245.19;5038520;28;1115;-74
2023/12/10 07:02:00;;;;;;;;;;;;;;;7.57;93.70;100260.91;5039521;28;1180;-75
2023/12/10 07:04:25;;;;;;;;;;;;;;;7.50;93.82;100264.06;5040393;28;1113;-74
2023/12/10 07:06:50;;;;;;;;;;;;;;;7.44;93.83;100250.69;5030315;28;1965;-75
2023/12/10 07:09:15;;;;;;;;;;;;;;;7.53;92.87;100250.94;5027547;28;1183;-74
2023/12/10 07:11:40;;;;;;;;;;;;;;;7.55;93.01;100267.09;5049229;28;1091;-75
2023/12/10 07:14:06;;;;;;;;;;;;;;;7.52;93.12;100288.00;5039208;28;1078;-74
2023/12/10 07:16:31;;;;;;;;;;;;;;;7.46;94.04;100278.97;5038745;28;1244;-74
2023/12/10 07:18:56;;;;;;;;;;;;;;;7.43;93.86;100285.19;5047587;28;1141;-74
2023/12/10 07:21:21;;;;;;;;;;;;;;;7.45;93.54;100288.47;5032035;28;1307;-76
2023/12/10 07:23:47;;;;;;;;;;;;;;;7.52;92.76;100298.31;5042649;28;1182;-74
2023/12/10 07:26:12;;;;;;;;;;;;;;;7.42;93.69;100293.88;5045096;28;1950;-73
2023/12/10 07:28:37;;;;;;;;;;;;;;;7.53;92.33;100318.03;5039736;28;1176;-74
2023/12/10 07:31:02;;;;;;;;;;;;;;;7.50;93.42;100310.50;5048165;28;1472;-75
2023/12/10 07:33:27;;;;;;;;;;;;;;;7.49;93.58;100312.28;5033731;28;1180;-73
2023/12/10 07:35:53;;;;;;;;;;;;;;;7.47;93.40;100328.81;5040721;28;1171;-75
2023/12/10 07:38:19;;;;;;;;;;;;;;;7.36;94.57;100343.34;5046197;28;1125;-75
2023/12/10 07:40:44;;;;;;;;;;;;;;;7.38;94.21;100344.03;5041107;28;1149;-73
2023/12/10 07:43:09;;;;;;;;;;;;;;;7.34;94.16;100347.81;5045739;28;1246;-75
2023/12/10 07:45:34;;;;;;;;;;;;;;;7.33;94.22;100351.31;5046490;28;1973;-73
2023/12/10 07:47:59;;;;;;;;;;;;;;;7.35;94.33;100344.28;5044555;28;1340;-74
2023/12/10 07:50:25;;;;;;;;;;;;;;;7.49;93.42;100352.75;5038012;28;966;-76
2023/12/10 07:52:50;;;;;;;;;;;;;;;7.49;92.78;100365.63;5038893;28;1276;-74
2023/12/10 07:55:15;;;;;;;;;;;;;;;7.51;92.74;100374.91;5047782;28;1356;-73
2023/12/10 07:57:40;;;;;;;;;;;;;;;7.38;93.87;100380.16;5042448;28;1083;-74
2023/12/10 08:00:06;;;;;;;;;;;;;;;7.36;94.54;100402.69;5042819;28;1290;-75
2023/12/10 08:02:32;;;;;;;;;;;;;;;7.38;94.26;100385.31;5039846;28;1106;-75
2023/12/10 08:04:57;;;;;;;;;;;;;;;7.41;94.18;100394.59;5035635;28;1297;-74
2023/12/10 08:07:23;;;;;;;;;;;;;;;7.43;94.06;100398.69;5031421;28;1961;-75
2023/12/10 08:09:48;;;;;;;;;;;;;;;7.39;94.29;100397.28;5047499;28;1289;-74
2023/12/10 08:12:13;;;;;;;;;;;;;;;7.33;95.19;100408.06;5043938;28;1102;-74
2023/12/10 08:14:38;;;;;;;;;;;;;;;7.54;92.92;100409.97;5033985;28;1195;-74
2023/12/10 08:17:03;;;;;;;;;;;;;;;7.34;95.18;100422.63;5046049;28;1263;-74
2023/12/10 08:19:29;;;;;;;;;;;;;;;7.35;95.15;100432.00;5043296;28;998;-75
2023/12/10 08:21:54;;;;;;;;;;;;;;;7.40;94.74;100435.06;5045883;28;1210;-74
2023/12/10 08:24:19;;;;;;;;;;;;;;;7.37;95.08;100453.34;5039035;28;1422;-75
2023/12/10 08:26:44;;;;;;;;;;;;;;;7.39;95.18;100430.81;5037821;28;1969;-74
2023/12/10 08:29:10;;;;;;;;;;;;;;;7.51;94.85;100428.25;5045168;28;1236;-74
2023/12/10 08:31:35;;;;;;;;;;;;;;;7.42;94.98;100433.19;5037383;28;1072;-73
2023/12/10 08:34:00;;;;;;;;;;;;;;;7.38;94.97;100446.44;5039567;28;1219;-73
2023/12/10 08:36:25;;;;;;;;;;;;;;;7.50;94.34;100445.50;5046436;28;1187;-75
2023/12/10 08:38:51;;;;;;;;;;;;;;;7.38;95.19;100452.41;5036004;28;1076;-74
2023/12/10 08:41:16;;;;;;;;;;;;;;;7.48;94.84;100446.56;5050827;28;1240;-73
2023/12/10 08:43:41;;;;;;;;;;;;;;;7.43;94.76;100450.31;5046619;28;1213;-73
2023/12/10 08:46:07;;;;;;;;;;;;;;;7.42;94.93;100461.56;5041810;28;1961;-74
2023/12/10 08:48:32;;;;;;;;;;;;;;;7.42;95.18;100464.16;5039579;28;1302;-74
2023/12/10 08:50:58;;;;;;;;;;;;;;;7.51;94.22;100466.97;5042533;28;986;-73
2023/12/10 08:53:23;;;;;;;;;;;;;;;7.48;94.93;100477.53;5045967;28;1242;-74
2023/12/10 08:55:48;;;;;;;;;;;;;;;7.43;95.18;100470.94;5039762;28;1291;-75
2023/12/10 08:58:14;;;;;;;;;;;;;;;7.41;95.38;100472.84;5035807;28;1055;-74
2023/12/10 09:00:39;;;;;;;;;;;;;;;7.48;95.11;100477.53;5044896;28;1126;-74
2023/12/10 09:03:04;;;;;;;;;;;;;;;7.39;95.99;100485.00;5045288;28;1145;-74
2023/12/10 09:05:31;;;;;;;;;;;;;;;7.44;95.75;100482.91;5042069;28;1966;-76
2023/12/10 09:07:56;;;;;;;;;;;;;;;7.41;95.69;100487.50;5035283;28;985;-74
2023/12/10 09:10:21;;;;;;;;;;;;;;;7.37;96.33;100489.47;5042868;28;1086;-75
2023/12/10 09:12:47;;;;;;;;;;;;;;;7.40;96.17;100491.84;5043317;28;1264;-74
2023/12/10 09:15:12;;;;;;;;;;;;;;;7.45;95.70;100494.06;5031281;28;1173;-74
2023/12/10 09:17:37;;;;;;;;;;;;;;;7.42;96.34;100505.44;5030785;28;1137;-74
2023/12/10 09:20:04;;;;;;;;;;;;;;;7.41;96.03;100501.22;5037782;28;1034;-74
2023/12/10 09:22:29;;;;;;;;;;;;;;;7.44;95.83;100508.72;5029399;28;986;-74
2023/12/10 09:24:54;;;;;;;;;;;;;;;7.48;95.79;100508.50;5047125;28;1139;-74
2023/12/10 09:27:19;;;;;;;;;;;;;;;7.48;95.91;100513.66;5044512;28;1961;-76
2023/12/10 09:29:45;;;;;;;;;;;;;;;7.51;96.23;100518.59;5043289;28;1100;-74
2023/12/10 09:32:12;;;;;;;;;;;;;;;7.48;96.42;100517.06;5046670;28;1303;-76
2023/12/10 09:34:39;;;;;;;;;;;;;;;7.52;96.11;100525.41;5048373;28;1286;-75
2023/12/10 09:37:04;;;;;;;;;;;;;;;7.50;96.26;100522.91;5037690;28;1188;-74
2023/12/10 09:39:29;;;;;;;;;;;;;;;7.48;96.65;100532.53;5031437;28;988;-74
2023/12/10 09:41:55;;;;;;;;;;;;;;;7.50;96.49;100525.50;5034766;28;1095;-74
2023/12/10 09:44:20;;;;;;;;;;;;;;;7.52;97.00;100530.56;5045518;28;1193;-74
2023/12/10 09:46:45;;;;;;;;;;;;;;;7.60;96.08;100538.56;5050708;28;1894;-74
2023/12/10 09:49:11;;;;;;;;;;;;;;;7.59;96.16;100531.75;5039176;28;1188;-73
2023/12/10 09:51:36;;;;;;;;;;;;;;;7.72;95.24;100522.16;5039034;28;1115;-77
2023/12/10 09:54:02;;;;;;;;;;;;;;;7.58;96.26;100519.78;5040111;28;1194;-74
2023/12/10 09:56:27;;;;;;;;;;;;;;;7.56;96.79;100516.50;5040550;28;1078;-76
2023/12/10 09:58:52;;;;;;;;;;;;;;;7.59;96.99;100526.59;5042095;28;1104;-74
2023/12/10 10:01:17;;;;;;;;;;;;;;;7.57;97.11;100533.59;5040221;28;1117;-74
2023/12/10 10:03:43;;;;;;;;;;;;;;;7.60;97.51;100530.81;5046454;28;926;-75
2023/12/10 10:06:08;;;;;;;;;;;;;;;7.56;97.67;100542.28;5042638;28;2385;-73
2023/12/10 10:08:33;;;;;;;;;;;;;;;7.61;97.40;100540.19;5041016;28;1074;-73
2023/12/10 10:10:58;;;;;;;;;;;;;;;7.53;98.08;100540.78;5031887;28;1138;-74
2023/12/10 10:13:24;;;;;;;;;;;;;;;7.72;97.53;100533.31;5035982;28;1402;-74
2023/12/10 10:15:49;;;;;;;;;;;;;;;7.62;97.78;100536.69;5037266;28;1109;-74
2023/12/10 10:18:14;;;;;;;;;;;;;;;7.61;98.41;100535.03;5038385;28;1245;-74
2023/12/10 10:20:41;;;;;;;;;;;;;;;7.62;98.26;100531.53;5038549;28;1021;-74
2023/12/10 10:23:06;;;;;;;;;;;;;;;7.66;97.83;100532.94;5038434;28;1230;-75
2023/12/10 10:25:31;;;;;;;;;;;;;;;7.60;98.09;100533.41;5036038;28;1902;-75
2023/12/10 10:27:58;;;;;;;;;;;;;;;7.60;98.51;100533.41;5033366;28;1285;-73
2023/12/10 10:30:23;;;;;;;;;;;;;;;7.60;99.07;100533.41;5040469;28;1119;-74
2023/12/10 10:32:48;;;;;;;;;;;;;;;7.68;99.06;100534.50;5040175;28;1223;-74
2023/12/10 10:35:13;;;;;;;;;;;;;;;7.81;98.82;100539.56;5042568;28;1078;-74
2023/12/10 10:37:39;;;;;;;;;;;;;;;7.75;99.09;100532.28;5034620;28;1194;-74
2023/12/10 10:40:05;;;;;;;;;;;;;;;7.89;99.61;100534.63;5042307;28;1155;-73
2023/12/10 10:42:30;;;;;;;;;;;;;;;7.83;99.99;100535.09;5041451;28;1250;-74
2023/12/10 10:44:55;;;;;;;;;;;;;;;7.86;99.69;100540.03;5034621;28;1187;-74
2023/12/10 10:47:22;;;;;;;;;;;;;;;7.95;99.91;100534.16;5048728;28;1972;-74
2023/12/10 10:49:53;;;;;;;;;;;;;;;7.92;99.71;100531.84;5036558;28;1185;-74
2023/12/10 10:52:23;;;;;;;;;;;;;;;7.94;99.99;100522.19;5047456;28;1171;-73
2023/12/10 10:54:49;;;;;;;;;;;;;;;7.91;100.00;100532.78;5040724;28;1138;-73
2023/12/10 10:57:30;;;;;;;;;;;;;;;7.93;100.00;100517.97;5042985;28;1143;-74
2023/12/10 10:59:56;;;;;;;;;;;;;;;7.98;99.83;100526.22;5038237;28;1060;-75
2023/12/10 11:02:21;;;;;;;;;;;;;;;8.01;100.00;100526.91;5035406;28;1226;-74
2023/12/10 11:04:50;;;;;;;;;;;;;;;8.07;100.00;100531.59;5044133;28;1242;-74
2023/12/10 11:07:18;;;;;;;;;;;;;;;8.12;99.57;100524.34;5042451;28;1906;-73
2023/12/10 11:09:55;;;;;;;;;;;;;;;8.07;100.00;100516.09;5051070;28;1317;-75
2023/12/10 11:12:39;;;;;;;;;;;;;;;8.13;100.00;100500.13;5041564;28;1075;-74
2023/12/10 11:15:04;;;;;;;;;;;;;;;8.19;100.00;100512.59;5040614;28;1199;-74
2023/12/10 11:17:29;;;;;;;;;;;;;;;8.22;100.00;100505.44;5039166;28;1096;-74
2023/12/10 11:19:58;;;;;;;;;;;;;;;8.33;100.00;100507.19;5043738;28;1205;-75
2023/12/10 11:22:23;;;;;;;;;;;;;;;8.41;100.00;100510.03;5033963;28;1051;-75
2023/12/10 11:24:52;;;;;;;;;;;;;;;8.47;100.00;100513.91;5038192;28;1102;-74
2023/12/10 11:27:18;;;;;;;;;;;;;;;8.50;99.95;100513.69;5035658;28;1894;-73
2023/12/10 11:29:43;;;;;;;;;;;;;;;8.51;99.99;100503.22;5029513;28;1219;-75
2023/12/10 11:32:08;;;;;;;;;;;;;;;8.55;99.81;100511.56;5033073;28;1085;-74
2023/12/10 11:34:33;;;;;;;;;;;;;;;8.57;99.57;100508.84;5038277;28;1062;-74
2023/12/10 11:36:59;;;;;;;;;;;;;;;8.60;99.34;100513.75;5032987;28;1087;-74
2023/12/10 11:39:25;;;;;;;;;;;;;;;8.61;99.37;100510.25;5046652;28;998;-74
2023/12/10 11:41:51;;;;;;;;;;;;;;;8.62;99.23;100504.97;5033586;28;1072;-74
2023/12/10 11:44:16;;;;;;;;;;;;;;;8.60;99.25;100508.59;5038972;28;1411;-73
2023/12/10 11:46:41;;;;;;;;;;;;;;;8.63;98.88;100508.34;5049774;28;1973;-73
2023/12/10 11:49:07;;;;;;;;;;;;;;;8.65;98.10;100506.47;5033465;28;1131;-73
2023/12/10 11:51:33;;;;;;;;;;;;;;;8.61;98.82;100515.44;5033974;28;895;-74
2023/12/10 11:53:58;;;;;;;;;;;;;;;8.64;98.02;100510.00;5048318;28;991;-76
2023/12/10 11:56:23;;;;;;;;;;;;;;;8.66;97.68;100523.63;5040742;28;1102;-74
2023/12/10 11:58:49;;;;;;;;;;;;;;;8.63;98.06;100516.13;5036953;28;1170;-75
2023/12/10 12:01:16;;;;;;;;;;;;;;;8.64;98.14;100520.34;5042034;28;1231;-73
2023/12/10 12:03:41;;;;;;;;;;;;;;;8.69;97.91;100513.88;5041475;28;1270;-74
2023/12/10 12:06:07;;;;;;;;;;;;;;;8.67;97.85;100514.94;5040079;28;1902;-74
2023/12/10 12:08:33;;;;;;;;;;;;;;;8.64;98.14;100510.00;5044276;28;1117;-73
2023/12/10 12:10:58;;;;;;;;;;;;;;;8.65;98.06;100509.06;5037285;28;1293;-75
2023/12/10 12:13:24;;;;;;;;;;;;;;;8.64;98.04;100520.34;5043302;28;1008;-74
2023/12/10 12:15:50;;;;;;;;;;;;;;;8.69;97.12;100523.38;5041091;28;1116;-74
2023/12/10 12:18:15;;;;;;;;;;;;;;;8.72;96.51;100525.75;5039953;28;1148;-73
2023/12/10 12:20:40;;;;;;;;;;;;;;;8.66;97.12;100513.28;5036155;28;1181;-76
2023/12/10 12:23:06;;;;;;;;;;;;;;;8.63;97.53;100508.34;5042241;28;1136;-74
2023/12/10 12:25:34;;;;;;;;;;;;;;;8.60;97.29;100506.00;5035163;28;1988;-76
2023/12/10 12:27:59;;;;;;;;;;;;;;;8.59;97.89;100509.53;5045916;28;1184;-75
2023/12/10 12:30:26;;;;;;;;;;;;;;;8.59;97.85;100502.59;5038650;28;1159;-73
2023/12/10 12:32:51;;;;;;;;;;;;;;;8.57;98.09;100503.66;5033302;28;1106;-75
2023/12/10 12:35:17;;;;;;;;;;;;;;;8.52;98.86;100496.28;5034775;28;1300;-73
2023/12/10 12:37:42;;;;;;;;;;;;;;;8.54;98.63;100483.22;5040603;28;1101;-73
2023/12/10 12:40:08;;;;;;;;;;;;;;;8.57;98.53;100463.13;5033497;28;1198;-74
2023/12/10 12:42:33;;;;;;;;;;;;;;;8.52;99.10;100476.41;5028304;28;1074;-74
2023/12/10 12:44:58;;;;;;;;;;;;;;;8.56;98.81;100465.84;5029976;28;1131;-74
2023/12/10 12:47:23;;;;;;;;;;;;;;;8.54;99.02;100441.88;5051741;28;1914;-73